Time;durP1;ratioP1;P1;durP2;ratioP2;P2;SDS_P1;SDS_P2;PMS_P1;PMS_P2;Temp;Humidity;BMP_temperature;BMP_pressure;BME280_temperature;BME280_humidity;BME280_pressure;Samples;Min_cycle;Max_cycle;Signal;HPM_P1;HPM_P2
2023/05/20 00:00:22;;;;;;;19.30;15.60;;;28.50;99.90;;;;;;5044984;28;20024;-38
2023/05/20 00:02:50;;;;;;;26.65;21.27;;;28.60;99.90;;;;;;5045191;28;20233;-38
2023/05/20 00:05:16;;;;;;;53.05;38.78;;;28.60;99.90;;;;;;5044832;28;20032;-38
2023/05/20 00:07:43;;;;;;;25.42;19.73;;;28.50;99.90;;;;;;5051308;28;20021;-51
2023/05/20 00:10:10;;;;;;;21.67;14.45;;;28.50;99.90;;;;;;5044650;28;20048;-41
2023/05/20 00:12:38;;;;;;;15.48;11.85;;;28.50;99.90;;;;;;5044607;28;20079;-41
2023/05/20 00:15:06;;;;;;;11.07;9.27;;;28.70;99.90;;;;;;5044941;28;20028;-48
2023/05/20 00:17:33;;;;;;;12.15;8.50;;;28.80;99.90;;;;;;5044607;28;20096;-48
2023/05/20 00:19:59;;;;;;;8.77;7.80;;;28.90;99.90;;;;;;5044164;28;20033;-45
2023/05/20 00:22:26;;;;;;;12.80;7.80;;;29.00;99.80;;;;;;5044673;28;20036;-42
2023/05/20 00:24:52;;;;;;;11.38;7.40;;;29.00;99.50;;;;;;5044576;28;20252;-42
2023/05/20 00:27:19;;;;;;;11.00;6.85;;;29.10;99.40;;;;;;5063466;28;20135;-52
2023/05/20 00:29:47;;;;;;;9.60;5.75;;;29.10;99.10;;;;;;5064337;28;20020;-42
2023/05/20 00:32:14;;;;;;;13.13;9.98;;;29.10;98.90;;;;;;5064354;28;20355;-44
2023/05/20 00:34:43;;;;;;;11.35;8.70;;;29.20;98.90;;;;;;5064009;28;20029;-41
2023/05/20 00:37:11;;;;;;;12.30;8.65;;;29.20;98.90;;;;;;5064290;28;20082;-41
2023/05/20 00:39:37;;;;;;;10.95;9.20;;;29.10;98.60;;;;;;5046759;28;20028;-41
2023/05/20 00:42:04;;;;;;;12.05;8.73;;;29.20;98.60;;;;;;5051286;28;20067;-44
2023/05/20 00:44:31;;;;;;;13.85;7.50;;;29.20;98.40;;;;;;5063820;28;20040;-44
2023/05/20 00:46:57;;;;;;;10.07;6.93;;;29.20;98.40;;;;;;5064062;28;20080;-49
2023/05/20 00:49:24;;;;;;;7.28;6.30;;;29.20;98.30;;;;;;5063899;28;20033;-52
2023/05/20 00:51:50;;;;;;;8.35;5.85;;;29.20;98.20;;;;;;5058467;28;20017;-41
2023/05/20 00:54:18;;;;;;;10.35;5.40;;;29.20;98.20;;;;;;5063944;28;20045;-46
2023/05/20 00:56:44;;;;;;;10.30;5.70;;;29.10;98.00;;;;;;5063811;28;20029;-45
2023/05/20 00:59:11;;;;;;;8.27;5.65;;;29.20;97.80;;;;;;5064256;28;20043;-47
2023/05/20 01:01:38;;;;;;;9.43;6.38;;;29.10;97.80;;;;;;5062582;28;20025;-47
2023/05/20 01:04:04;;;;;;;8.25;6.43;;;29.10;97.70;;;;;;5051102;28;20041;-53
2023/05/20 01:06:32;;;;;;;8.75;5.88;;;29.20;97.70;;;;;;5043707;28;20362;-49
2023/05/20 01:08:59;;;;;;;8.35;5.45;;;29.20;97.70;;;;;;5044273;28;20025;-57
2023/05/20 01:11:38;;;;;;;7.10;5.38;;;29.20;97.60;;;;;;5042505;28;20041;-44
2023/05/20 01:14:08;;;;;;;10.70;5.90;;;29.20;97.70;;;;;;5043512;28;20033;-46
2023/05/20 01:16:36;;;;;;;9.73;6.32;;;29.20;97.70;;;;;;5043822;28;20100;-42
2023/05/20 01:19:17;;;;;;;10.15;6.50;;;29.20;97.70;;;;;;5043730;28;20025;-53
2023/05/20 01:21:45;;;;;;;8.18;5.95;;;29.20;97.70;;;;;;5043735;28;20029;-51
2023/05/20 01:24:12;;;;;;;13.70;6.30;;;29.10;97.60;;;;;;5044170;28;20038;-43
2023/05/20 01:26:39;;;;;;;7.57;5.25;;;29.10;97.60;;;;;;5050432;28;20044;-52
2023/05/20 01:29:05;;;;;;;12.10;5.82;;;29.00;97.70;;;;;;5064122;28;20078;-52
2023/05/20 01:31:35;;;;;;;10.38;5.45;;;29.10;97.60;;;;;;5062584;28;20080;-48
2023/05/20 01:34:03;;;;;;;10.82;6.13;;;29.00;97.60;;;;;;5052860;28;20043;-44
2023/05/20 01:36:31;;;;;;;13.25;6.50;;;29.00;97.70;;;;;;5056574;28;20062;-47
2023/05/20 01:39:02;;;;;;;14.90;6.10;;;29.10;97.70;;;;;;5053870;28;20039;-49
2023/05/20 01:41:29;;;;;;;11.63;6.53;;;29.10;97.50;;;;;;5052101;28;20310;-49
2023/05/20 01:43:57;;;;;;;8.32;5.55;;;29.20;97.30;;;;;;5052338;28;20108;-44
2023/05/20 01:46:23;;;;;;;13.82;5.53;;;29.10;97.20;;;;;;5051150;28;20017;-46
2023/05/20 01:48:51;;;;;;;13.07;5.05;;;29.10;97.00;;;;;;5054351;28;20023;-47
2023/05/20 01:51:18;;;;;;;12.75;5.05;;;29.00;96.80;;;;;;5052923;28;20036;-48
2023/05/20 01:53:44;;;;;;;7.68;4.35;;;29.10;96.60;;;;;;5052242;28;20179;-48
2023/05/20 01:56:11;;;;;;;5.18;4.20;;;29.10;96.60;;;;;;5053766;28;20060;-45
2023/05/20 01:58:37;;;;;;;8.13;4.07;;;29.10;96.40;;;;;;5053071;28;20056;-48
2023/05/20 02:01:04;;;;;;;11.45;4.30;;;29.20;96.20;;;;;;5051783;28;20088;-48
2023/05/20 02:03:32;;;;;;;8.48;3.80;;;29.10;96.00;;;;;;5051429;28;20029;-47
2023/05/20 02:05:59;;;;;;;6.47;3.88;;;;;;;;;;5042927;28;20272;-47
2023/05/20 02:08:25;;;;;;;8.38;3.47;;;29.10;95.50;;;;;;5043055;28;20094;-45
2023/05/20 02:10:52;;;;;;;10.55;3.70;;;29.20;95.70;;;;;;5042421;28;20065;-43
2023/05/20 02:13:18;;;;;;;7.30;4.18;;;29.20;95.50;;;;;;5043555;28;20057;-44
2023/05/20 02:15:46;;;;;;;11.55;4.40;;;29.20;95.40;;;;;;5043055;28;20084;-45
2023/05/20 02:18:12;;;;;;;6.20;3.90;;;29.10;95.60;;;;;;5043581;28;20033;-45
2023/05/20 02:20:40;;;;;;;7.07;3.70;;;29.00;95.60;;;;;;5042750;28;20038;-44
2023/05/20 02:23:07;;;;;;;7.32;3.20;;;29.10;95.80;;;;;;5043230;28;20033;-47
2023/05/20 02:25:34;;;;;;;7.18;3.90;;;29.10;95.60;;;;;;5052458;28;20088;-45
2023/05/20 02:28:00;;;;;;;10.65;3.72;;;;;;;;;;5044828;28;20034;-45
2023/05/20 02:30:27;;;;;;;12.20;4.43;;;29.00;95.50;;;;;;5043957;28;20025;-47
2023/05/20 02:32:53;;;;;;;53.75;7.55;;;28.90;95.50;;;;;;5046880;28;20144;-52
2023/05/20 02:35:20;;;;;;;38.00;6.80;;;28.80;95.40;;;;;;5046403;28;20037;-46
2023/05/20 02:37:47;;;;;;;21.08;5.45;;;28.80;95.30;;;;;;5046598;28;20196;-50
2023/05/20 02:40:13;;;;;;;25.77;4.50;;;28.80;95.30;;;;;;5046475;28;20033;-48
2023/05/20 02:42:40;;;;;;;14.05;4.20;;;28.70;95.10;;;;;;5046440;28;20109;-54
2023/05/20 02:45:07;;;;;;;16.60;4.20;;;28.80;95.10;;;;;;5046495;28;20249;-51
2023/05/20 02:47:34;;;;;;;9.73;3.90;;;28.70;95.00;;;;;;5046488;28;20104;-43
2023/05/20 02:50:00;;;;;;;9.93;3.72;;;28.70;94.80;;;;;;5046031;28;20029;-48
2023/05/20 02:52:27;;;;;;;8.77;3.53;;;28.70;94.90;;;;;;5046465;28;20021;-44
2023/05/20 02:54:53;;;;;;;9.07;3.50;;;28.70;95.00;;;;;;5046156;28;20022;-46
2023/05/20 02:57:20;;;;;;;7.50;3.63;;;28.70;95.00;;;;;;5046252;28;20052;-52
2023/05/20 02:59:46;;;;;;;13.10;4.03;;;28.70;95.20;;;;;;5056139;28;20021;-49
2023/05/20 03:02:13;;;;;;;8.73;3.50;;;28.70;95.20;;;;;;5059400;28;20017;-52
2023/05/20 03:04:39;;;;;;;5.20;3.03;;;28.70;95.30;;;;;;5065791;28;20078;-44
2023/05/20 03:07:07;;;;;;;7.25;3.63;;;28.60;95.10;;;;;;5065943;28;20086;-45
2023/05/20 03:09:34;;;;;;;6.05;3.40;;;28.60;94.90;;;;;;5065562;28;20036;-45
2023/05/20 03:12:00;;;;;;;9.52;4.10;;;28.60;94.80;;;;;;5065781;28;20025;-46
2023/05/20 03:14:27;;;;;;;8.02;3.45;;;28.60;94.90;;;;;;5065789;28;20031;-50
2023/05/20 03:16:56;;;;;;;8.50;3.90;;;28.60;94.90;;;;;;5063571;28;20029;-54
2023/05/20 03:19:23;;;;;;;8.27;4.03;;;28.60;94.90;;;;;;5056656;28;20317;-46
2023/05/20 03:21:51;;;;;;;9.88;3.63;;;28.60;94.90;;;;;;5045698;28;20309;-47
2023/05/20 03:24:17;;;;;;;8.55;3.80;;;28.60;94.90;;;;;;5045579;28;20033;-49
2023/05/20 03:26:45;;;;;;;9.60;5.28;;;28.50;95.00;;;;;;5045668;28;20101;-44
2023/05/20 03:29:11;;;;;;;6.45;4.22;;;28.60;95.20;;;;;;5046097;28;20029;-46
2023/05/20 03:31:38;;;;;;;12.27;4.25;;;28.60;95.20;;;;;;5049372;28;20036;-45
2023/05/20 03:34:05;;;;;;;8.43;4.10;;;28.50;95.20;;;;;;5059759;28;20063;-53
2023/05/20 03:36:31;;;;;;;7.30;4.25;;;28.50;95.10;;;;;;5065441;28;20317;-48
2023/05/20 03:38:58;;;;;;;6.75;3.63;;;28.50;95.10;;;;;;5065756;28;20051;-50
2023/05/20 03:41:25;;;;;;;7.97;4.28;;;28.50;95.40;;;;;;5065047;28;20025;-47
2023/05/20 03:43:51;;;;;;;8.65;4.10;;;28.50;95.40;;;;;;5046542;28;20033;-47
2023/05/20 03:46:18;;;;;;;8.35;4.13;;;28.50;95.40;;;;;;5045067;28;20018;-50
2023/05/20 03:48:44;;;;;;;8.57;4.20;;;28.40;95.30;;;;;;5044563;28;20093;-55
2023/05/20 03:51:11;;;;;;;11.88;3.90;;;28.40;95.40;;;;;;5044979;28;20021;-51
2023/05/20 03:53:38;;;;;;;8.85;3.83;;;28.40;95.60;;;;;;5045386;28;20033;-54
2023/05/20 03:56:05;;;;;;;8.32;4.32;;;28.50;95.60;;;;;;5046875;28;20225;-50
2023/05/20 03:58:32;;;;;;;9.00;4.65;;;28.50;95.70;;;;;;5054191;28;20049;-49
2023/05/20 04:00:58;;;;;;;10.93;5.32;;;28.50;95.70;;;;;;5044854;28;20024;-50
2023/05/20 04:03:27;;;;;;;8.05;4.70;;;28.40;95.70;;;;;;5045213;28;20100;-53
2023/05/20 04:05:53;;;;;;;14.13;4.35;;;28.40;95.80;;;;;;5044874;28;20025;-46
2023/05/20 04:08:20;;;;;;;10.00;4.03;;;28.40;95.80;;;;;;5060797;28;20032;-44
2023/05/20 04:10:47;;;;;;;6.80;4.20;;;28.40;95.90;;;;;;5063203;28;20090;-44
2023/05/20 04:13:13;;;;;;;8.38;3.85;;;28.40;95.90;;;;;;5063262;28;20025;-48
2023/05/20 04:15:40;;;;;;;7.45;4.00;;;28.30;95.90;;;;;;5059252;28;20025;-45
2023/05/20 04:18:07;;;;;;;10.25;4.00;;;28.30;96.20;;;;;;5050667;28;20300;-49
2023/05/20 04:20:33;;;;;;;9.25;3.97;;;28.30;96.00;;;;;;5044616;28;20024;-52
2023/05/20 04:23:00;;;;;;;7.38;3.60;;;28.30;95.90;;;;;;5044756;28;20057;-48
2023/05/20 04:25:26;;;;;;;7.35;3.60;;;28.20;95.90;;;;;;5044496;28;20060;-52
2023/05/20 04:27:53;;;;;;;8.00;3.78;;;28.20;95.80;;;;;;5044462;28;20072;-58
2023/05/20 04:30:20;;;;;;;7.72;3.63;;;28.30;95.90;;;;;;5044480;28;20187;-54
2023/05/20 04:32:49;;;;;;;5.10;3.25;;;28.20;95.90;;;;;;5044784;28;20100;-56
2023/05/20 04:35:17;;;;;;;6.47;3.60;;;28.20;95.90;;;;;;5044387;28;20021;-52
2023/05/20 04:37:47;;;;;;;7.13;3.58;;;28.20;95.90;;;;;;5044070;28;20217;-51
2023/05/20 04:40:14;;;;;;;10.38;4.18;;;28.10;95.90;;;;;;5044081;28;20125;-50
2023/05/20 04:42:42;;;;;;;7.30;3.33;;;28.10;95.90;;;;;;5057811;28;20201;-50
2023/05/20 04:45:09;;;;;;;5.28;3.60;;;28.10;96.00;;;;;;5064157;28;20021;-54
2023/05/20 04:47:37;;;;;;;8.80;3.70;;;28.10;96.10;;;;;;5064337;28;20112;-48
2023/05/20 04:50:12;;;;;;;7.10;3.55;;;28.10;96.20;;;;;;5049732;28;20057;-53
2023/05/20 04:52:40;;;;;;;12.30;4.50;;;28.10;96.20;;;;;;5043690;28;20256;-49
2023/05/20 04:55:11;;;;;;;7.55;3.85;;;28.10;96.10;;;;;;5044190;28;20024;-52
2023/05/20 04:57:42;;;;;;;8.43;3.78;;;28.00;96.10;;;;;;5044310;28;20045;-51
2023/05/20 05:00:09;;;;;;;7.93;3.85;;;28.00;96.20;;;;;;5043910;28;20091;-51
2023/05/20 05:02:39;;;;;;;9.82;3.97;;;28.10;96.40;;;;;;5045151;28;20044;-45
2023/05/20 05:05:06;;;;;;;8.43;3.65;;;28.10;96.40;;;;;;5043977;28;20029;-50
2023/05/20 05:07:32;;;;;;;9.18;3.70;;;28.00;96.50;;;;;;5043972;28;20292;-53
2023/05/20 05:09:59;;;;;;;9.55;4.07;;;28.00;96.40;;;;;;5043985;28;20033;-45
2023/05/20 05:12:26;;;;;;;7.45;3.70;;;28.00;96.40;;;;;;5043832;28;20039;-50
2023/05/20 05:14:52;;;;;;;5.30;3.75;;;28.00;96.60;;;;;;5043802;28;20028;-48
2023/05/20 05:17:19;;;;;;;6.28;3.53;;;28.00;96.30;;;;;;5043906;28;20099;-48
2023/05/20 05:19:45;;;;;;;7.95;3.60;;;27.90;96.30;;;;;;5043793;28;20029;-44
2023/05/20 05:22:12;;;;;;;8.50;3.70;;;28.00;96.40;;;;;;5043744;28;20297;-49
2023/05/20 05:24:38;;;;;;;7.50;4.10;;;27.80;96.30;;;;;;5049081;28;20094;-49
2023/05/20 05:27:05;;;;;;;7.72;3.60;;;27.90;96.30;;;;;;5063697;28;20019;-45
2023/05/20 05:29:31;;;;;;;9.52;4.20;;;27.90;96.40;;;;;;5063517;28;20331;-44
2023/05/20 05:31:58;;;;;;;6.07;3.65;;;27.90;96.60;;;;;;5063645;28;20135;-46
2023/05/20 05:34:24;;;;;;;9.77;4.20;;;27.90;96.50;;;;;;5063604;28;20025;-46
2023/05/20 05:36:51;;;;;;;8.35;3.50;;;27.80;96.50;;;;;;5063373;28;20074;-53
2023/05/20 05:39:17;;;;;;;7.70;4.00;;;27.80;96.60;;;;;;5063825;28;20033;-49
2023/05/20 05:41:44;;;;;;;8.48;4.00;;;27.80;96.60;;;;;;5063625;28;20039;-46
2023/05/20 05:44:10;;;;;;;6.75;3.88;;;27.80;96.70;;;;;;5054847;28;20029;-44
2023/05/20 05:46:37;;;;;;;7.28;3.97;;;27.90;96.70;;;;;;5043908;28;20077;-49
2023/05/20 05:49:03;;;;;;;5.68;3.72;;;27.80;96.80;;;;;;5044145;28;20017;-44
2023/05/20 05:51:30;;;;;;;6.75;4.13;;;27.90;97.00;;;;;;5043425;28;20336;-47
2023/05/20 05:53:57;;;;;;;12.23;4.32;;;28.00;97.00;;;;;;5043958;28;20036;-43
2023/05/20 05:56:23;;;;;;;7.47;4.15;;;28.00;96.90;;;;;;5043499;28;20085;-45
2023/05/20 05:58:50;;;;;;;5.50;4.10;;;28.00;96.80;;;;;;5043790;28;20029;-48
2023/05/20 06:01:16;;;;;;;8.60;4.57;;;28.10;96.90;;;;;;5043510;28;20360;-45
2023/05/20 06:03:43;;;;;;;7.93;3.78;;;28.10;96.70;;;;;;5043857;28;20302;-47
2023/05/20 06:06:09;;;;;;;6.75;4.25;;;28.20;96.80;;;;;;5047065;28;20037;-49
2023/05/20 06:08:36;;;;;;;7.88;4.35;;;28.20;96.80;;;;;;5047614;28;20063;-50
2023/05/20 06:11:02;;;;;;;7.28;4.25;;;28.10;96.90;;;;;;5047175;28;20025;-47
2023/05/20 06:13:29;;;;;;;6.28;4.28;;;28.20;97.10;;;;;;5047531;28;20163;-52
2023/05/20 06:15:55;;;;;;;8.57;4.43;;;28.20;97.10;;;;;;5046956;28;20025;-43
2023/05/20 06:18:21;;;;;;;8.02;4.57;;;28.20;97.20;;;;;;5047402;28;20031;-48
2023/05/20 06:20:55;;;;;;;8.20;4.60;;;28.10;97.30;;;;;;5047056;28;20035;-46
2023/05/20 06:23:21;;;;;;;14.57;4.45;;;28.10;97.40;;;;;;5047240;28;20091;-50
2023/05/20 06:25:48;;;;;;;7.78;4.60;;;28.20;97.40;;;;;;5046970;28;20036;-51
2023/05/20 06:28:15;;;;;;;10.52;4.47;;;28.20;97.50;;;;;;5047115;28;20274;-54
2023/05/20 06:30:42;;;;;;;6.38;4.47;;;28.20;97.50;;;;;;5046809;28;20025;-50
2023/05/20 06:33:08;;;;;;;5.63;4.15;;;28.10;97.60;;;;;;5047265;28;20041;-54
2023/05/20 06:35:35;;;;;;;8.15;4.72;;;28.00;97.60;;;;;;5046707;28;20210;-49
2023/05/20 06:38:02;;;;;;;9.90;4.40;;;28.00;97.70;;;;;;5046784;28;20029;-52
2023/05/20 06:40:28;;;;;;;7.30;4.90;;;28.00;97.80;;;;;;5046594;28;20348;-47
2023/05/20 06:42:55;;;;;;;5.32;4.15;;;28.00;97.90;;;;;;5046740;28;20035;-52
2023/05/20 06:45:21;;;;;;;14.65;4.90;;;27.90;97.90;;;;;;5046520;28;20024;-48
2023/05/20 06:47:48;;;;;;;10.38;5.00;;;27.90;98.00;;;;;;5046709;28;20179;-50
2023/05/20 06:50:15;;;;;;;9.02;4.50;;;27.90;98.10;;;;;;5046500;28;20053;-47
2023/05/20 06:52:41;;;;;;;9.02;4.45;;;27.80;98.20;;;;;;5046533;28;20210;-47
2023/05/20 06:55:09;;;;;;;8.05;4.70;;;27.80;98.20;;;;;;5046441;28;20033;-48
2023/05/20 06:57:36;;;;;;;6.90;4.03;;;27.70;98.20;;;;;;5046235;28;20029;-47
2023/05/20 07:00:06;;;;;;;11.02;4.93;;;27.70;98.20;;;;;;5046270;28;20017;-49
2023/05/20 07:02:33;;;;;;;8.35;4.45;;;27.70;98.30;;;;;;5046227;28;20111;-50
2023/05/20 07:04:59;;;;;;;12.02;4.55;;;27.70;98.40;;;;;;5046195;28;20076;-48
2023/05/20 07:07:26;;;;;;;8.55;4.47;;;27.70;98.40;;;;;;5046150;28;20175;-52
2023/05/20 07:09:53;;;;;;;10.98;4.40;;;27.70;98.30;;;;;;5045981;28;20100;-48
2023/05/20 07:12:20;;;;;;;10.05;4.47;;;27.70;98.30;;;;;;5046184;28;20025;-47
2023/05/20 07:14:46;;;;;;;6.55;4.07;;;27.60;98.20;;;;;;5045902;28;20067;-51
2023/05/20 07:17:13;;;;;;;8.90;4.45;;;27.70;98.20;;;;;;5045286;28;20038;-50
2023/05/20 07:19:39;;;;;;;11.57;4.53;;;27.70;98.20;;;;;;5045911;28;20047;-50
2023/05/20 07:22:06;;;;;;;8.77;4.57;;;27.60;98.20;;;;;;5057820;28;20093;-46
2023/05/20 07:24:32;;;;;;;9.32;4.20;;;27.60;98.10;;;;;;5065778;28;20067;-50
2023/05/20 07:26:59;;;;;;;9.75;4.43;;;27.70;98.20;;;;;;5065661;28;20086;-48
2023/05/20 07:29:25;;;;;;;9.88;4.07;;;27.60;98.10;;;;;;5065930;28;20017;-48
2023/05/20 07:31:52;;;;;;;6.90;4.20;;;27.60;98.10;;;;;;5065596;28;20029;-49
2023/05/20 07:34:18;;;;;;;7.68;4.30;;;27.60;98.10;;;;;;5065566;28;20025;-53
2023/05/20 07:36:45;;;;;;;7.53;4.32;;;27.60;98.00;;;;;;5065628;28;20025;-52
2023/05/20 07:39:12;;;;;;;9.73;4.90;;;27.60;98.00;;;;;;5066047;28;20048;-47
2023/05/20 07:41:39;;;;;;;7.30;4.35;;;27.60;97.90;;;;;;5065376;28;20425;-44
2023/05/20 07:44:07;;;;;;;6.05;3.03;;;27.60;97.80;;;;;;5065121;28;20036;-47
2023/05/20 07:46:34;;;;;;;7.63;4.28;;;27.60;97.80;;;;;;5065268;28;20063;-45
2023/05/20 07:49:00;;;;;;;8.98;4.13;;;27.60;97.60;;;;;;5065804;28;20032;-46
2023/05/20 07:51:27;;;;;;;9.25;4.35;;;27.60;97.60;;;;;;5065276;28;20037;-47
2023/05/20 07:53:54;;;;;;;8.63;4.57;;;27.60;97.50;;;;;;5065880;28;20044;-44
2023/05/20 07:56:20;;;;;;;5.20;4.05;;;27.60;97.50;;;;;;5065276;28;20032;-48
2023/05/20 07:58:55;;;;;;;9.77;4.38;;;27.50;97.40;;;;;;5065646;28;20293;-45
2023/05/20 08:01:21;;;;;;;9.18;4.45;;;27.60;97.40;;;;;;5065284;28;20301;-45
2023/05/20 08:03:48;;;;;;;10.45;4.43;;;27.60;97.30;;;;;;5065271;28;20028;-46
2023/05/20 08:06:15;;;;;;;9.50;3.88;;;27.50;97.30;;;;;;5064858;28;20265;-50
2023/05/20 08:08:42;;;;;;;6.95;4.60;;;27.50;97.30;;;;;;5065382;28;20037;-47
2023/05/20 08:11:09;;;;;;;9.02;4.15;;;27.60;97.30;;;;;;5064862;28;20044;-46
2023/05/20 08:13:36;;;;;;;5.90;3.70;;;27.60;97.30;;;;;;5065162;28;20033;-49
2023/05/20 08:16:05;;;;;;;8.60;4.30;;;27.60;97.30;;;;;;5065051;28;20070;-45
2023/05/20 08:18:33;;;;;;;14.10;4.70;;;27.60;97.30;;;;;;5065189;28;20025;-46
2023/05/20 08:21:00;;;;;;;5.72;3.83;;;27.60;97.30;;;;;;5064652;28;20029;-44
2023/05/20 08:23:26;;;;;;;10.90;4.38;;;27.60;97.30;;;;;;5065053;28;20070;-49
2023/05/20 08:25:53;;;;;;;7.20;4.05;;;27.60;97.60;;;;;;5064566;28;20313;-46
2023/05/20 08:28:20;;;;;;;11.80;4.00;;;27.70;97.20;;;;;;5063479;28;20056;-44
2023/05/20 08:30:47;;;;;;;12.38;4.75;;;27.60;97.20;;;;;;5064457;28;20017;-44
2023/05/20 08:33:14;;;;;;;8.77;4.28;;;27.60;97.30;;;;;;5064698;28;20036;-44
2023/05/20 08:35:41;;;;;;;7.28;3.95;;;27.60;97.30;;;;;;5064263;28;20348;-44
2023/05/20 08:38:07;;;;;;;8.35;4.30;;;27.60;97.40;;;;;;5064591;28;20040;-45
2023/05/20 08:40:37;;;;;;;13.73;4.32;;;27.70;97.40;;;;;;5064296;28;20044;-45
2023/05/20 08:43:04;;;;;;;7.65;4.07;;;27.70;97.30;;;;;;5064560;28;20037;-49
2023/05/20 08:45:32;;;;;;;8.73;3.97;;;27.70;97.30;;;;;;5064280;28;20025;-45
2023/05/20 08:48:00;;;;;;;7.75;4.10;;;27.70;97.30;;;;;;5064406;28;20094;-46
2023/05/20 08:50:27;;;;;;;11.57;4.18;;;27.70;97.30;;;;;;5064113;28;20056;-44
2023/05/20 08:52:53;;;;;;;5.82;4.03;;;27.70;97.40;;;;;;5064285;28;20060;-45
2023/05/20 08:55:50;;;;;;;7.80;4.22;;;27.70;97.50;;;;;;5064168;28;20074;-47
2023/05/20 08:58:18;;;;;;;7.65;4.30;;;27.60;97.60;;;;;;5063911;28;20112;-53
2023/05/20 09:00:45;;;;;;;7.78;4.40;;;27.60;97.70;;;;;;5063997;28;20021;-45
2023/05/20 09:03:11;;;;;;;8.43;4.45;;;27.60;97.60;;;;;;5064005;28;20094;-43
2023/05/20 09:05:38;;;;;;;10.10;4.28;;;27.60;97.50;;;;;;5063917;28;20021;-44
2023/05/20 09:08:06;;;;;;;8.68;4.15;;;27.70;97.40;;;;;;5064281;28;20040;-44
2023/05/20 09:10:34;;;;;;;9.05;3.78;;;27.70;97.40;;;;;;5063628;28;20060;-48
2023/05/20 09:13:04;;;;;;;7.85;3.92;;;27.70;97.30;;;;;;5064107;28;20252;-44
2023/05/20 09:15:31;;;;;;;8.55;3.92;;;27.80;97.30;;;;;;5064134;28;20399;-45
2023/05/20 09:18:02;;;;;;;9.18;3.83;;;27.80;97.50;;;;;;5063894;28;20075;-48
2023/05/20 09:20:30;;;;;;;6.55;3.95;;;27.70;97.30;;;;;;5063772;28;20043;-48
2023/05/20 09:23:01;;;;;;;9.02;4.10;;;27.70;97.40;;;;;;5063764;28;20070;-47
2023/05/20 09:25:31;;;;;;;8.50;4.00;;;27.60;97.50;;;;;;5063737;28;20032;-45
2023/05/20 09:27:57;;;;;;;9.13;4.20;;;27.60;97.60;;;;;;5063665;28;20028;-48
2023/05/20 09:30:24;;;;;;;7.32;3.97;;;27.60;97.60;;;;;;5063534;28;20084;-44
2023/05/20 09:32:55;;;;;;;9.88;3.88;;;27.50;97.70;;;;;;5063816;28;20036;-45
2023/05/20 09:35:23;;;;;;;8.82;4.25;;;27.50;97.70;;;;;;5063719;28;20205;-48
2023/05/20 09:37:54;;;;;;;6.70;3.83;;;27.50;97.60;;;;;;5063733;28;20363;-44
2023/05/20 09:40:29;;;;;;;7.93;4.17;;;27.50;97.60;;;;;;5066257;28;20024;-45
2023/05/20 09:43:02;;;;;;;9.90;4.30;;;27.50;97.60;;;;;;5067936;28;20032;-45
2023/05/20 09:45:29;;;;;;;8.32;3.75;;;27.40;97.50;;;;;;5067635;28;20023;-45
2023/05/20 09:47:56;;;;;;;10.60;4.22;;;27.50;97.70;;;;;;5068007;28;20047;-44
2023/05/20 09:50:24;;;;;;;6.35;3.65;;;27.40;97.70;;;;;;5067732;28;20084;-45
2023/05/20 09:52:53;;;;;;;7.50;4.15;;;27.40;97.70;;;;;;5062136;28;20379;-44
2023/05/20 09:55:24;;;;;;;9.95;4.20;;;27.40;97.70;;;;;;5054532;28;20039;-47
2023/05/20 09:57:53;;;;;;;7.47;3.85;;;27.40;97.70;;;;;;5050956;28;20026;-45
2023/05/20 10:00:20;;;;;;;7.30;3.80;;;27.40;97.70;;;;;;5047380;28;20337;-45
2023/05/20 10:02:53;;;;;;;8.30;4.25;;;27.30;97.60;;;;;;5047435;28;20037;-45
2023/05/20 10:05:26;;;;;;;8.60;4.00;;;27.30;97.60;;;;;;5047117;28;20057;-45
2023/05/20 10:07:59;;;;;;;6.72;3.85;;;27.30;97.50;;;;;;5047491;28;20021;-45
2023/05/20 10:10:43;;;;;;;6.25;4.20;;;27.40;97.60;;;;;;5046859;28;20068;-44
2023/05/20 10:13:28;;;;;;;9.77;3.80;;;27.30;97.50;;;;;;5066904;28;20040;-47
2023/05/20 10:16:18;;;;;;;7.25;4.32;;;27.40;97.40;;;;;;5067050;28;20032;-44
2023/05/20 10:19:09;;;;;;;7.85;3.88;;;27.50;97.20;;;;;;5067548;28;20029;-45
2023/05/20 10:21:36;;;;;;;7.00;4.40;;;27.40;97.20;;;;;;5066946;28;20344;-46
2023/05/20 10:24:07;;;;;;;7.78;4.25;;;27.40;97.30;;;;;;5067239;28;20040;-49
2023/05/20 10:26:41;;;;;;;10.02;4.13;;;27.40;97.20;;;;;;5066874;28;20048;-47
2023/05/20 10:29:21;;;;;;;7.63;3.88;;;27.40;97.10;;;;;;5067437;28;20037;-46
2023/05/20 10:31:52;;;;;;;7.00;3.65;;;27.40;97.20;;;;;;5066671;28;20028;-49
2023/05/20 10:34:20;;;;;;;9.10;4.03;;;27.30;97.20;;;;;;5066748;28;20043;-45
2023/05/20 10:36:53;;;;;;;7.93;3.90;;;27.30;97.40;;;;;;5066525;28;20092;-49
2023/05/20 10:39:27;;;;;;;9.55;4.18;;;27.30;97.40;;;;;;5066642;28;20282;-44
2023/05/20 10:42:04;;;;;;;9.13;4.63;;;27.30;97.50;;;;;;5063652;28;20037;-50
2023/05/20 10:44:44;;;;;;;9.07;4.00;;;27.20;97.40;;;;;;5066443;28;20202;-44
2023/05/20 10:47:11;;;;;;;18.30;4.97;;;27.20;97.50;;;;;;5066346;28;20213;-46
2023/05/20 10:49:47;;;;;;;10.68;4.05;;;27.20;97.60;;;;;;5066393;28;20032;-44
2023/05/20 10:52:14;;;;;;;9.15;3.88;;;27.20;97.60;;;;;;5065424;28;20099;-50
2023/05/20 10:54:55;;;;;;;9.38;4.30;;;27.20;97.80;;;;;;5066207;28;20078;-44
2023/05/20 10:57:22;;;;;;;9.10;4.40;;;27.20;97.60;;;;;;5064042;28;20036;-45
2023/05/20 10:59:50;;;;;;;12.00;4.50;;;27.20;97.60;;;;;;5066138;28;20091;-46
2023/05/20 11:02:17;;;;;;;10.27;4.15;;;27.20;97.70;;;;;;5065693;28;20044;-45
2023/05/20 11:04:44;;;;;;;10.00;3.70;;;27.20;97.60;;;;;;5054421;28;20045;-52
2023/05/20 11:07:11;;;;;;;7.50;4.07;;;27.20;97.60;;;;;;5046051;28;20029;-47
2023/05/20 11:09:38;;;;;;;9.77;3.80;;;27.20;97.60;;;;;;5046161;28;20030;-43
2023/05/20 11:12:05;;;;;;;8.48;4.07;;;27.20;97.70;;;;;;5054459;28;20210;-44
2023/05/20 11:14:31;;;;;;;6.60;4.10;;;27.20;97.70;;;;;;5063078;28;20237;-48
2023/05/20 11:16:59;;;;;;;9.20;4.20;;;27.20;97.70;;;;;;5045823;28;20029;-44
2023/05/20 11:19:26;;;;;;;10.90;4.30;;;27.20;97.70;;;;;;5045802;28;20033;-45
2023/05/20 11:21:54;;;;;;;8.73;4.18;;;27.20;97.90;;;;;;5046023;28;20025;-43
2023/05/20 11:24:26;;;;;;;11.18;4.45;;;27.00;98.40;;;;;;5045729;28;20045;-47
2023/05/20 11:26:57;;;;;;;;;;;26.90;98.90;;;;;;5046130;28;20018;-43
2023/05/20 11:29:25;;;;;;;13.80;5.05;;;26.80;99.00;;;;;;5048853;28;19982;-51
2023/05/20 11:31:52;;;;;;;8.13;4.35;;;26.80;99.20;;;;;;5045504;28;20029;-43
2023/05/20 11:34:22;;;;;;;12.95;4.43;;;26.90;99.10;;;;;;5044442;28;20021;-44
2023/05/20 11:36:55;;;;;;;11.68;4.50;;;27.00;98.90;;;;;;5045325;28;20037;-46
2023/05/20 11:39:22;;;;;;;13.23;4.35;;;27.10;98.60;;;;;;5045521;28;20030;-43
2023/05/20 11:41:48;;;;;;;8.95;4.32;;;27.30;98.40;;;;;;5045205;28;20095;-44
2023/05/20 11:44:14;;;;;;;9.10;3.90;;;27.40;98.20;;;;;;5043557;28;20028;-43
2023/05/20 11:46:46;;;;;;;9.77;3.92;;;27.50;97.90;;;;;;5043727;28;20024;-42
2023/05/20 11:49:14;;;;;;;9.80;3.67;;;27.60;97.80;;;;;;5043666;28;20095;-46
2023/05/20 11:51:42;;;;;;;8.27;3.47;;;27.70;97.60;;;;;;5043755;28;20025;-43
2023/05/20 11:54:09;;;;;;;8.95;3.88;;;27.90;97.50;;;;;;5043637;28;20045;-44
2023/05/20 11:56:37;;;;;;;12.70;3.80;;;28.00;97.20;;;;;;5043826;28;20248;-45
2023/05/20 11:59:05;;;;;;;10.52;3.58;;;28.10;97.00;;;;;;5057795;28;20409;-42
2023/05/20 12:01:39;;;;;;;10.27;3.72;;;28.20;96.60;;;;;;5064945;28;20021;-43
2023/05/20 12:04:07;;;;;;;10.13;3.65;;;28.30;96.50;;;;;;5065160;28;20041;-47
2023/05/20 12:06:35;;;;;;;12.68;3.55;;;28.40;96.30;;;;;;5064988;28;20085;-47
2023/05/20 12:09:06;;;;;;;12.88;3.25;;;28.50;95.90;;;;;;5065273;28;20051;-46
2023/05/20 12:11:38;;;;;;;12.05;3.50;;;28.60;96.00;;;;;;5064900;28;20055;-48
2023/05/20 12:14:05;;;;;;;8.52;3.08;;;28.70;95.80;;;;;;5065309;28;20317;-50
2023/05/20 12:16:33;;;;;;;11.88;3.38;;;28.70;95.70;;;;;;5064865;28;20035;-44
2023/05/20 12:19:00;;;;;;;14.20;3.47;;;28.80;95.70;;;;;;5065005;28;20028;-42
2023/05/20 12:21:30;;;;;;;9.18;3.20;;;28.90;95.50;;;;;;5064807;28;20028;-48
2023/05/20 12:24:00;;;;;;;7.88;2.70;;;29.00;95.60;;;;;;5058920;28;20038;-46
2023/05/20 12:26:28;;;;;;;12.20;3.20;;;29.10;95.40;;;;;;5044625;28;20246;-42
2023/05/20 12:28:55;;;;;;;10.75;2.97;;;29.10;95.20;;;;;;5044979;28;20033;-41
2023/05/20 12:31:21;;;;;;;9.27;3.28;;;29.10;95.10;;;;;;5044489;28;20022;-43
2023/05/20 12:33:48;;;;;;;9.40;3.10;;;29.20;95.10;;;;;;5044827;28;20041;-42
2023/05/20 12:36:15;;;;;;;8.38;2.97;;;29.20;95.00;;;;;;5044388;28;20029;-45
2023/05/20 12:38:41;;;;;;;8.02;3.05;;;29.30;95.00;;;;;;5055707;28;20310;-42
2023/05/20 12:41:08;;;;;;;13.38;3.30;;;29.40;94.90;;;;;;5044228;28;20033;-47
2023/05/20 12:43:38;;;;;;;10.73;3.50;;;29.40;94.80;;;;;;5044219;28;20217;-43
2023/05/20 12:46:05;;;;;;;11.27;3.20;;;29.50;94.70;;;;;;5044263;28;20060;-51
2023/05/20 12:48:31;;;;;;;5.68;3.17;;;29.50;94.70;;;;;;5064036;28;20044;-43